createdAt,value
2018-05-02T00:00:18.273Z,6.80
2018-05-02T00:01:18.204Z,6.87
2018-05-02T00:02:18.123Z,6.67
2018-05-02T00:03:18.043Z,6.76
2018-05-02T00:04:17.964Z,6.73
2018-05-02T00:05:17.892Z,6.61
2018-05-02T00:06:17.812Z,6.62
2018-05-02T00:07:17.731Z,6.69
2018-05-02T00:08:17.652Z,6.61
2018-05-02T00:09:17.576Z,6.67
2018-05-02T00:10:17.573Z,6.56
2018-05-02T00:11:17.423Z,6.73
2018-05-02T00:12:17.344Z,6.66
2018-05-02T00:13:17.269Z,6.61
2018-05-02T00:14:17.188Z,6.61
2018-05-02T00:15:17.113Z,6.64
2018-05-02T00:16:17.037Z,6.56
2018-05-02T00:17:16.961Z,6.58
2018-05-02T00:18:16.881Z,6.55
2018-05-02T00:19:16.805Z,6.49
2018-05-02T00:20:16.723Z,6.48
2018-05-02T00:21:16.653Z,6.43
2018-05-02T00:22:16.571Z,6.48
2018-05-02T00:23:16.498Z,6.48
2018-05-02T00:24:16.418Z,6.54
2018-05-02T00:25:16.340Z,6.58
2018-05-02T00:26:16.265Z,6.48
2018-05-02T00:27:16.185Z,6.49
2018-05-02T00:28:16.115Z,6.54
2018-05-02T00:29:16.024Z,6.46
2018-05-02T00:30:15.954Z,6.48
2018-05-02T00:31:15.875Z,6.58
2018-05-02T00:32:15.796Z,6.43
2018-05-02T00:33:15.720Z,6.52
2018-05-02T00:34:15.640Z,6.48
2018-05-02T00:35:15.564Z,6.52
2018-05-02T00:36:15.487Z,6.43
2018-05-02T00:37:15.410Z,6.43
2018-05-02T00:38:15.330Z,6.43
2018-05-02T00:39:15.253Z,6.40
2018-05-02T00:40:15.175Z,6.36
2018-05-02T00:41:15.098Z,6.33
2018-05-02T00:42:15.021Z,6.41
2018-05-02T00:43:14.943Z,6.36
2018-05-02T00:44:14.867Z,6.41
2018-05-02T00:45:14.788Z,6.34
2018-05-02T00:46:14.710Z,6.40
2018-05-02T00:47:14.629Z,6.44
2018-05-02T00:48:14.554Z,6.34
2018-05-02T00:49:14.496Z,6.41
2018-05-02T00:50:14.400Z,6.31
2018-05-02T00:51:14.321Z,6.33
2018-05-02T00:52:14.244Z,6.34
2018-05-02T00:53:14.167Z,6.33
2018-05-02T00:54:14.090Z,6.19
2018-05-02T00:55:14.009Z,6.27
2018-05-02T00:56:13.934Z,6.22
2018-05-02T00:57:13.857Z,6.27
2018-05-02T00:58:13.776Z,6.18
2018-05-02T00:59:13.699Z,6.22
2018-05-02T01:00:13.622Z,6.15
2018-05-02T01:01:13.545Z,6.21
2018-05-02T01:02:13.466Z,6.25
2018-05-02T01:03:13.388Z,6.25
2018-05-02T01:04:13.326Z,6.22
2018-05-02T01:05:13.234Z,6.33
2018-05-02T01:06:13.156Z,6.25
2018-05-02T01:07:13.078Z,6.22
2018-05-02T01:08:12.999Z,6.33
2018-05-02T01:09:12.921Z,6.34
2018-05-02T01:10:12.844Z,6.28
2018-05-02T01:11:12.769Z,6.27
2018-05-02T01:12:12.697Z,6.28
2018-05-02T01:13:12.611Z,6.21
2018-05-02T01:14:12.539Z,6.30
2018-05-02T01:15:12.456Z,6.30
2018-05-02T01:16:12.378Z,6.18
2018-05-02T01:17:12.299Z,6.21
2018-05-02T01:18:12.222Z,6.17
2018-05-02T01:19:12.151Z,6.19
2018-05-02T01:20:12.066Z,6.33
2018-05-02T01:21:11.986Z,6.31
2018-05-02T01:22:11.912Z,6.19
2018-05-02T01:23:11.837Z,6.25
2018-05-02T01:24:11.755Z,6.22
2018-05-02T01:25:11.682Z,6.17
2018-05-02T01:26:11.598Z,6.17
2018-05-02T01:27:11.521Z,6.21
2018-05-02T01:28:11.446Z,6.06
2018-05-02T01:29:11.364Z,6.04
2018-05-02T01:30:11.290Z,6.01
2018-05-02T01:31:11.209Z,6.09
2018-05-02T01:32:11.135Z,6.12
2018-05-02T01:33:11.056Z,6.03
2018-05-02T01:34:10.981Z,6.08
2018-05-02T01:35:10.902Z,6.06
2018-05-02T01:36:10.820Z,5.99
2018-05-02T01:37:10.742Z,6.08
2018-05-02T01:38:10.662Z,6.08
2018-05-02T01:39:10.584Z,6.04
2018-05-02T01:40:10.512Z,5.97
2018-05-02T01:41:10.430Z,5.93
2018-05-02T01:42:10.356Z,6.01
2018-05-02T01:43:10.274Z,5.96
2018-05-02T01:44:10.202Z,5.96
2018-05-02T01:45:10.118Z,5.81
2018-05-02T01:46:10.038Z,5.86
2018-05-02T01:47:09.963Z,5.90
2018-05-02T01:48:09.885Z,5.94
2018-05-02T01:49:09.816Z,5.89
2018-05-02T01:50:09.727Z,5.86
2018-05-02T01:51:09.650Z,5.86
2018-05-02T01:52:09.572Z,5.82
2018-05-02T01:53:09.494Z,5.86
2018-05-02T01:54:09.424Z,5.82
2018-05-02T01:55:09.341Z,5.85
2018-05-02T01:56:09.261Z,5.85
2018-05-02T01:57:09.182Z,5.85
2018-05-02T01:58:09.102Z,5.86
2018-05-02T01:59:09.028Z,5.86
2018-05-02T02:00:08.948Z,5.97
2018-05-02T02:01:08.869Z,5.90
2018-05-02T02:02:08.795Z,5.96
2018-05-02T02:03:08.717Z,5.86
2018-05-02T02:04:08.638Z,5.81
2018-05-02T02:05:08.558Z,5.76
2018-05-02T02:06:08.479Z,5.76
2018-05-02T02:07:08.401Z,5.63
2018-05-02T02:08:08.324Z,5.65
2018-05-02T02:09:08.249Z,5.71
2018-05-02T02:10:08.166Z,5.67
2018-05-02T02:11:08.088Z,5.67
2018-05-02T02:12:08.010Z,5.61
2018-05-02T02:13:07.931Z,5.60
2018-05-02T02:14:07.853Z,5.61
2018-05-02T02:15:07.775Z,5.58
2018-05-02T02:16:07.698Z,5.65
2018-05-02T02:17:07.619Z,5.57
2018-05-02T02:18:07.541Z,5.46
2018-05-02T02:19:07.461Z,5.53
2018-05-02T02:20:07.384Z,5.65
2018-05-02T02:21:07.311Z,5.61
2018-05-02T02:22:07.228Z,5.68
2018-05-02T02:23:07.151Z,5.56
2018-05-02T02:24:07.073Z,5.60
2018-05-02T02:25:06.994Z,5.65
2018-05-02T02:26:06.916Z,5.58
2018-05-02T02:27:06.837Z,5.63
2018-05-02T02:28:06.761Z,5.64
2018-05-02T02:29:06.682Z,5.57
2018-05-02T02:30:06.601Z,5.56
2018-05-02T02:31:06.519Z,5.58
2018-05-02T02:32:06.451Z,5.56
2018-05-02T02:33:06.366Z,5.61
2018-05-02T02:34:06.361Z,5.64
2018-05-02T02:35:06.213Z,5.68
2018-05-02T02:36:06.136Z,5.61
2018-05-02T02:37:06.056Z,5.54
2018-05-02T02:38:05.977Z,5.71
2018-05-02T02:39:05.905Z,5.67
2018-05-02T02:40:05.820Z,5.63
2018-05-02T02:41:05.746Z,5.63
2018-05-02T02:42:05.664Z,5.67
2018-05-02T02:43:05.588Z,5.63
2018-05-02T02:44:05.508Z,5.78
2018-05-02T02:45:05.433Z,5.79
2018-05-02T02:46:05.351Z,5.72
2018-05-02T02:47:05.272Z,5.68
2018-05-02T02:48:05.196Z,5.72
2018-05-02T02:49:05.121Z,5.65
2018-05-02T02:50:05.040Z,5.64
2018-05-02T02:51:04.959Z,5.64
2018-05-02T02:52:04.882Z,5.60
2018-05-02T02:53:04.843Z,5.68
2018-05-02T02:54:04.726Z,5.65
2018-05-02T02:55:04.650Z,5.57
2018-05-02T02:56:04.570Z,5.58
2018-05-02T02:57:04.489Z,5.60
2018-05-02T02:58:04.412Z,5.61
2018-05-02T02:59:04.337Z,5.60
2018-05-02T03:00:04.255Z,5.58
2018-05-02T03:01:04.182Z,5.54
2018-05-02T03:02:04.100Z,5.56
2018-05-02T03:03:04.020Z,5.51
2018-05-02T03:04:03.947Z,5.43
2018-05-02T03:05:03.865Z,5.49
2018-05-02T03:06:03.791Z,5.43
2018-05-02T03:07:03.708Z,5.43
2018-05-02T03:08:03.628Z,5.46
2018-05-02T03:09:03.549Z,5.49
2018-05-02T03:10:03.471Z,5.45
2018-05-02T03:11:03.395Z,5.48
2018-05-02T03:12:03.316Z,5.40
2018-05-02T03:13:03.238Z,5.36
2018-05-02T03:14:03.158Z,5.25
2018-05-02T03:15:03.080Z,5.24
2018-05-02T03:16:03.001Z,5.20
2018-05-02T03:17:02.924Z,5.18
2018-05-02T03:18:02.845Z,5.25
2018-05-02T03:19:02.773Z,5.25
2018-05-02T03:20:02.689Z,5.20
2018-05-02T03:21:02.614Z,5.24
2018-05-02T03:22:02.540Z,5.27
2018-05-02T03:23:02.452Z,5.28
2018-05-02T03:24:02.376Z,5.25
2018-05-02T03:25:02.318Z,5.25
2018-05-02T03:26:02.220Z,5.21
2018-05-02T03:27:02.219Z,5.21
2018-05-02T03:28:02.064Z,5.18
2018-05-02T03:29:01.982Z,5.21
2018-05-02T03:30:01.911Z,5.20
2018-05-02T03:31:01.824Z,5.22
2018-05-02T03:32:01.747Z,5.24
2018-05-02T03:33:01.677Z,5.20
2018-05-02T03:34:01.590Z,5.22
2018-05-02T03:35:01.511Z,5.17
2018-05-02T03:36:01.435Z,5.06
2018-05-02T03:37:01.356Z,5.06
2018-05-02T03:38:01.277Z,5.06
2018-05-02T03:39:01.200Z,5.03
2018-05-02T03:40:01.121Z,5.06
2018-05-02T03:41:01.042Z,5.02
2018-05-02T03:42:00.962Z,4.96
2018-05-02T03:43:00.884Z,5.02
2018-05-02T03:44:00.805Z,5.02
2018-05-02T03:45:00.728Z,4.99
2018-05-02T03:46:00.647Z,4.97
2018-05-02T03:47:00.571Z,4.96
2018-05-02T03:48:00.495Z,4.91
2018-05-02T03:49:00.413Z,4.97
2018-05-02T03:50:00.332Z,5.02
2018-05-02T03:51:00.253Z,5.04
2018-05-02T03:52:00.178Z,4.96
2018-05-02T03:53:00.124Z,4.85
2018-05-02T03:54:00.023Z,4.99
2018-05-02T03:54:59.941Z,4.99
2018-05-02T03:55:59.863Z,5.07
2018-05-02T03:56:59.783Z,5.00
2018-05-02T03:57:59.703Z,5.07
2018-05-02T03:58:59.625Z,5.06
2018-05-02T03:59:59.551Z,5.07
2018-05-02T04:00:59.468Z,5.03
2018-05-02T04:01:59.389Z,5.07
2018-05-02T04:02:59.312Z,4.94
2018-05-02T04:03:59.233Z,4.97
2018-05-02T04:04:59.149Z,5.03
2018-05-02T04:05:59.076Z,5.07
2018-05-02T04:06:58.996Z,5.00
2018-05-02T04:07:58.916Z,4.99
2018-05-02T04:08:58.838Z,5.00
2018-05-02T04:09:58.758Z,5.03
2018-05-02T04:10:58.681Z,4.86
2018-05-02T04:11:58.605Z,4.94
2018-05-02T04:12:58.524Z,4.88
2018-05-02T04:13:58.445Z,4.84
2018-05-02T04:14:58.366Z,4.84
2018-05-02T04:15:58.288Z,4.88
2018-05-02T04:16:58.212Z,4.89
2018-05-02T04:17:58.131Z,4.85
2018-05-02T04:18:58.051Z,4.86
2018-05-02T04:19:57.971Z,4.85
2018-05-02T04:20:57.896Z,4.91
2018-05-02T04:21:57.815Z,4.89
2018-05-02T04:22:57.736Z,4.86
2018-05-02T04:23:57.670Z,4.85
2018-05-02T04:24:57.596Z,4.84
2018-05-02T04:25:57.499Z,4.92
2018-05-02T04:26:57.421Z,4.85
2018-05-02T04:27:57.340Z,4.91
2018-05-02T04:28:57.264Z,4.92
2018-05-02T04:29:57.193Z,4.82
2018-05-02T04:30:57.101Z,4.84
2018-05-02T04:31:57.028Z,4.88
2018-05-02T04:32:56.949Z,4.85
2018-05-02T04:33:56.868Z,4.86
2018-05-02T04:34:56.791Z,4.85
2018-05-02T04:35:56.712Z,4.88
2018-05-02T04:36:56.632Z,4.84
2018-05-02T04:37:56.557Z,4.88
2018-05-02T04:38:56.477Z,4.94
2018-05-02T04:39:56.399Z,4.91
2018-05-02T04:40:56.324Z,4.84
2018-05-02T04:41:56.240Z,4.86
2018-05-02T04:42:56.164Z,4.99
2018-05-02T04:43:56.082Z,5.02
2018-05-02T04:44:56.003Z,5.02
2018-05-02T04:45:55.926Z,5.06
2018-05-02T04:46:55.843Z,5.02
2018-05-02T04:47:55.767Z,5.06
2018-05-02T04:48:55.689Z,5.04
2018-05-02T04:49:55.618Z,5.02
2018-05-02T04:50:55.531Z,4.99
2018-05-02T04:51:55.451Z,5.03
2018-05-02T04:52:55.373Z,5.09
2018-05-02T04:53:55.296Z,5.06
2018-05-02T04:54:55.216Z,5.07
2018-05-02T04:55:55.136Z,5.07
2018-05-02T04:56:55.059Z,5.00
2018-05-02T04:57:54.978Z,5.03
2018-05-02T04:58:54.901Z,5.17
2018-05-02T04:59:54.822Z,5.20
2018-05-02T05:00:54.743Z,5.17
2018-05-02T05:01:54.662Z,5.17
2018-05-02T05:02:54.585Z,5.24
2018-05-02T05:03:54.507Z,5.24
2018-05-02T05:04:54.428Z,5.22
2018-05-02T05:05:54.347Z,5.20
2018-05-02T05:06:54.271Z,5.22
2018-05-02T05:07:54.222Z,5.36
2018-05-02T05:08:54.116Z,5.35
2018-05-02T05:09:54.033Z,5.36
2018-05-02T05:10:53.958Z,5.33
2018-05-02T05:11:53.878Z,5.36
2018-05-02T05:12:53.801Z,5.42
2018-05-02T05:13:53.720Z,5.51
2018-05-02T05:14:53.641Z,5.56
2018-05-02T05:15:53.563Z,5.58
2018-05-02T05:16:53.484Z,5.56
2018-05-02T05:17:53.405Z,5.60
2018-05-02T05:18:53.331Z,5.63
2018-05-02T05:19:53.307Z,5.67
2018-05-02T05:20:53.169Z,5.68
2018-05-02T05:21:53.090Z,5.75
2018-05-02T05:22:53.016Z,5.82
2018-05-02T05:23:52.936Z,5.82
2018-05-02T05:24:52.858Z,5.93
2018-05-02T05:25:52.778Z,6.00
2018-05-02T05:26:52.703Z,6.11
2018-05-02T05:27:52.621Z,6.09
2018-05-02T05:28:52.544Z,6.14
2018-05-02T05:29:52.469Z,6.18
2018-05-02T05:30:52.388Z,6.18
2018-05-02T05:31:52.309Z,6.33
2018-05-02T05:32:52.233Z,6.37
2018-05-02T05:33:52.150Z,6.40
2018-05-02T05:34:52.075Z,6.38
2018-05-02T05:35:51.998Z,6.38
2018-05-02T05:36:51.920Z,6.55
2018-05-02T05:37:51.842Z,6.54
2018-05-02T05:38:51.764Z,6.55
2018-05-02T05:39:51.685Z,6.56
2018-05-02T05:40:51.601Z,6.54
2018-05-02T05:41:51.531Z,6.58
2018-05-02T05:42:51.455Z,6.61
2018-05-02T05:43:51.375Z,6.56
2018-05-02T05:44:51.300Z,6.73
2018-05-02T05:45:51.219Z,6.69
2018-05-02T05:46:51.145Z,6.74
2018-05-02T05:47:51.065Z,6.76
2018-05-02T05:48:50.988Z,6.77
2018-05-02T05:49:50.915Z,6.81
2018-05-02T05:50:50.833Z,6.92
2018-05-02T05:51:50.757Z,6.87
2018-05-02T05:52:50.678Z,6.97
2018-05-02T05:53:50.600Z,6.97
2018-05-02T05:54:50.524Z,6.98
2018-05-02T05:55:50.444Z,6.99
2018-05-02T05:56:50.369Z,7.10
2018-05-02T05:57:50.291Z,7.17
2018-05-02T05:58:50.214Z,7.27
2018-05-02T05:59:50.137Z,7.27
2018-05-02T06:00:50.111Z,7.23
2018-05-02T06:01:49.981Z,7.28
2018-05-02T06:02:49.909Z,7.27
2018-05-02T06:03:49.828Z,7.40
2018-05-02T06:04:49.752Z,7.37
2018-05-02T06:05:49.674Z,7.35
2018-05-02T06:06:49.609Z,7.45
2018-05-02T06:07:49.520Z,7.49
2018-05-02T06:08:49.444Z,7.40
2018-05-02T06:09:49.366Z,7.50
2018-05-02T06:10:49.290Z,7.53
2018-05-02T06:11:49.211Z,7.48
2018-05-02T06:12:49.181Z,7.52
2018-05-02T06:13:49.059Z,7.60
2018-05-02T06:14:48.982Z,7.72
2018-05-02T06:15:48.912Z,7.69
2018-05-02T06:16:48.829Z,7.68
2018-05-02T06:17:48.749Z,7.77
2018-05-02T06:18:48.716Z,7.72
2018-05-02T06:19:48.598Z,7.87
2018-05-02T06:20:48.522Z,7.83
2018-05-02T06:21:48.446Z,7.82
2018-05-02T06:22:48.370Z,7.92
2018-05-02T06:23:48.296Z,7.98
2018-05-02T06:24:48.214Z,8.16
2018-05-02T06:25:48.137Z,8.07
2018-05-02T06:26:48.063Z,8.10
2018-05-02T06:27:47.988Z,8.18
2018-05-02T06:28:47.911Z,8.26
2018-05-02T06:29:47.834Z,8.29
2018-05-02T06:30:48.379Z,8.23
2018-05-02T06:31:47.729Z,8.26
2018-05-02T06:32:47.606Z,8.25
2018-05-02T06:33:47.528Z,8.34
2018-05-02T06:34:47.458Z,8.34
2018-05-02T06:35:47.381Z,8.36
2018-05-02T06:36:47.301Z,8.45
2018-05-02T06:37:47.301Z,8.45
2018-05-02T06:38:47.146Z,8.44
2018-05-02T06:39:47.067Z,8.44
2018-05-02T06:40:47.001Z,8.48
2018-05-02T06:41:46.921Z,8.55
2018-05-02T06:42:46.843Z,8.55
2018-05-02T06:43:46.765Z,8.73
2018-05-02T06:44:46.690Z,8.80
2018-05-02T06:45:46.612Z,8.92
2018-05-02T06:46:46.541Z,8.81
2018-05-02T06:47:46.465Z,8.89
2018-05-02T06:48:46.384Z,8.98
2018-05-02T06:49:46.308Z,8.98
2018-05-02T06:50:46.239Z,9.13
2018-05-02T06:51:46.158Z,9.10
2018-05-02T06:52:46.082Z,9.28
2018-05-02T06:53:46.008Z,9.29
2018-05-02T06:54:45.970Z,9.29
2018-05-02T06:55:45.853Z,9.36
2018-05-02T06:56:45.783Z,9.33
2018-05-02T06:57:45.704Z,9.38
2018-05-02T06:58:45.633Z,9.33
2018-05-02T06:59:45.550Z,9.42
2018-05-02T07:00:45.499Z,9.50
2018-05-02T07:01:45.400Z,9.58
2018-05-02T07:02:45.325Z,9.56
2018-05-02T07:03:45.250Z,9.57
2018-05-02T07:04:45.176Z,9.65
2018-05-02T07:05:45.100Z,9.66
2018-05-02T07:06:45.023Z,9.53
2018-05-02T07:07:44.947Z,9.60
2018-05-02T07:08:44.872Z,9.71
2018-05-02T07:09:44.795Z,9.69
2018-05-02T07:10:44.723Z,9.71
2018-05-02T07:11:44.645Z,9.74
2018-05-02T07:12:44.572Z,9.72
2018-05-02T07:13:44.497Z,9.76
2018-05-02T07:14:44.428Z,9.81
2018-05-02T07:15:44.351Z,9.83
2018-05-02T07:16:44.270Z,9.99
2018-05-02T07:17:44.194Z,9.97
2018-05-02T07:18:44.120Z,9.96
2018-05-02T07:19:44.043Z,10.02
2018-05-02T07:20:43.970Z,9.96
2018-05-02T07:21:43.895Z,10.09
2018-05-02T07:22:43.818Z,10.11
2018-05-02T07:23:43.743Z,10.09
2018-05-02T07:24:43.675Z,10.15
2018-05-02T07:25:43.594Z,10.22
2018-05-02T07:26:43.518Z,10.15
2018-05-02T07:27:44.384Z,10.15
2018-05-02T07:28:43.368Z,10.22
2018-05-02T07:29:43.298Z,10.25
2018-05-02T07:30:43.219Z,10.30
2018-05-02T07:31:43.144Z,10.41
2018-05-02T07:32:43.143Z,10.40
2018-05-02T07:33:42.996Z,10.41
2018-05-02T07:34:42.921Z,10.36
2018-05-02T07:35:42.850Z,10.36
2018-05-02T07:36:42.772Z,10.59
2018-05-02T07:37:42.699Z,10.53
2018-05-02T07:38:42.623Z,10.64
2018-05-02T07:39:42.549Z,10.71
2018-05-02T07:40:42.476Z,10.76
2018-05-02T07:41:42.400Z,10.79
2018-05-02T07:42:42.327Z,10.79
2018-05-02T07:43:42.251Z,10.64
2018-05-02T07:44:42.179Z,10.73
2018-05-02T07:45:42.102Z,10.66
2018-05-02T07:46:42.031Z,10.76
2018-05-02T07:47:41.953Z,10.86
2018-05-02T07:48:41.898Z,10.96
2018-05-02T07:49:41.805Z,10.99
2018-05-02T07:50:41.733Z,11.07
2018-05-02T07:51:41.660Z,11.14
2018-05-02T07:52:41.583Z,11.25
2018-05-02T07:53:41.512Z,11.39
2018-05-02T07:54:41.437Z,11.52
2018-05-02T07:55:41.361Z,11.51
2018-05-02T07:56:41.296Z,11.58
2018-05-02T07:57:41.211Z,11.73
2018-05-02T07:58:41.142Z,11.69
2018-05-02T07:59:41.067Z,11.76
2018-05-02T08:00:40.992Z,11.76
2018-05-02T08:01:40.917Z,11.86
2018-05-02T08:02:40.843Z,11.94
2018-05-02T08:03:40.770Z,11.98
2018-05-02T08:04:40.703Z,11.95
2018-05-02T08:05:40.622Z,12.02
2018-05-02T08:06:40.550Z,12.13
2018-05-02T08:07:40.479Z,12.21
2018-05-02T08:08:40.403Z,12.21
2018-05-02T08:09:40.337Z,12.16
2018-05-02T08:10:40.262Z,12.13
2018-05-02T08:11:40.183Z,12.09
2018-05-02T08:12:40.112Z,12.20
2018-05-02T08:13:40.036Z,12.23
2018-05-02T08:14:39.969Z,12.37
2018-05-02T08:15:39.890Z,12.31
2018-05-02T08:16:39.820Z,12.37
2018-05-02T08:17:39.749Z,12.45
2018-05-02T08:18:39.673Z,12.56
2018-05-02T08:19:39.599Z,12.62
2018-05-02T08:20:39.529Z,12.70
2018-05-02T08:21:39.454Z,12.74
2018-05-02T08:22:39.380Z,12.93
2018-05-02T08:23:39.301Z,12.85
2018-05-02T08:24:39.228Z,12.97
2018-05-02T08:25:39.170Z,13.07
2018-05-02T08:26:39.090Z,13.23
2018-05-02T08:27:39.016Z,13.30
2018-05-02T08:28:38.945Z,13.36
2018-05-02T08:29:38.873Z,13.39
2018-05-02T08:30:38.798Z,13.32
2018-05-02T08:31:38.724Z,13.46
2018-05-02T08:32:38.653Z,13.59
2018-05-02T08:33:38.578Z,13.55
2018-05-02T08:34:38.507Z,13.59
2018-05-02T08:35:38.440Z,13.67
2018-05-02T08:36:38.360Z,13.75
2018-05-02T08:37:38.287Z,13.87
2018-05-02T08:38:38.217Z,13.88
2018-05-02T08:39:38.149Z,14.00
2018-05-02T08:40:38.073Z,14.20
2018-05-02T08:41:37.999Z,14.27
2018-05-02T08:42:37.927Z,14.35
2018-05-02T08:43:37.856Z,14.50
2018-05-02T08:44:37.784Z,14.46
2018-05-02T08:45:37.713Z,14.52
2018-05-02T08:46:37.642Z,14.40
2018-05-02T08:47:37.569Z,14.50
2018-05-02T08:48:37.500Z,14.68
2018-05-02T08:49:37.431Z,14.72
2018-05-02T08:50:37.355Z,14.84
2018-05-02T08:51:37.281Z,14.98
2018-05-02T08:52:37.213Z,15.09
2018-05-02T08:53:37.141Z,15.20
2018-05-02T08:54:37.073Z,15.21
2018-05-02T08:55:36.999Z,15.28
2018-05-02T08:56:36.928Z,15.41
2018-05-02T08:57:36.857Z,15.47
2018-05-02T08:58:36.786Z,15.56
2018-05-02T08:59:36.715Z,15.57
2018-05-02T09:00:36.643Z,15.72
2018-05-02T09:01:36.573Z,15.83
2018-05-02T09:02:36.503Z,16.14
2018-05-02T09:03:36.430Z,16.01
2018-05-02T09:04:36.361Z,16.09
2018-05-02T09:05:36.290Z,15.96
2018-05-02T09:06:36.226Z,16.04
2018-05-02T09:07:36.154Z,16.20
2018-05-02T09:08:36.079Z,16.09
2018-05-02T09:09:36.007Z,16.12
2018-05-02T09:10:35.937Z,16.05
2018-05-02T09:11:35.868Z,16.21
2018-05-02T09:12:35.797Z,16.15
2018-05-02T09:13:35.726Z,16.63
2018-05-02T09:14:35.662Z,17.04
2018-05-02T09:15:35.613Z,17.46
2018-05-02T09:16:35.517Z,18.33
2018-05-02T09:17:35.447Z,19.13
2018-05-02T09:18:35.381Z,18.99
2018-05-02T09:19:35.329Z,19.32
2018-05-02T09:20:35.244Z,19.77
2018-05-02T09:21:35.175Z,19.91
2018-05-02T09:22:35.112Z,20.13
2018-05-02T09:23:35.044Z,20.32
2018-05-02T09:24:34.977Z,21.13
2018-05-02T09:25:34.909Z,21.99
2018-05-02T09:26:34.843Z,21.91
2018-05-02T09:27:34.779Z,22.21
2018-05-02T09:28:34.714Z,22.64
2018-05-02T09:29:34.649Z,23.22
2018-05-02T09:30:34.585Z,23.02
2018-05-02T09:31:34.523Z,22.94
2018-05-02T09:32:34.457Z,22.60
2018-05-02T09:33:34.396Z,23.02
2018-05-02T09:34:34.333Z,22.00
2018-05-02T09:35:34.308Z,20.06
2018-05-02T09:36:34.212Z,19.86
2018-05-02T09:37:34.149Z,20.21
2018-05-02T09:38:34.092Z,21.14
2018-05-02T09:39:34.025Z,20.55
2018-05-02T09:40:33.966Z,20.79
2018-05-02T09:41:33.901Z,20.85
2018-05-02T09:42:33.841Z,20.16
2018-05-02T09:43:33.780Z,19.91
2018-05-02T09:44:33.723Z,20.39
2018-05-02T09:45:33.657Z,20.23
2018-05-02T09:46:33.599Z,20.39
2018-05-02T09:47:33.536Z,19.87
2018-05-02T09:48:33.484Z,20.14
2018-05-02T09:49:33.416Z,20.88
2018-05-02T09:50:33.352Z,21.17
2018-05-02T09:51:33.292Z,21.31
2018-05-02T09:52:33.230Z,21.25
2018-05-02T09:53:33.168Z,21.50
2018-05-02T09:54:33.113Z,21.99
2018-05-02T09:55:33.046Z,22.12
2018-05-02T09:56:32.986Z,22.94
2018-05-02T09:57:32.923Z,23.47
2018-05-02T09:58:32.863Z,23.76
2018-05-02T09:59:32.802Z,23.46
2018-05-02T10:00:32.741Z,23.60
2018-05-02T10:01:32.681Z,23.38
2018-05-02T10:02:32.621Z,22.61
2018-05-02T10:03:32.559Z,22.52
2018-05-02T10:04:32.523Z,22.85
2018-05-02T10:05:32.436Z,22.25
2018-05-02T10:06:32.385Z,22.58
2018-05-02T10:07:32.319Z,22.58
2018-05-02T10:08:32.259Z,22.68
2018-05-02T10:09:32.194Z,22.45
2018-05-02T10:10:32.136Z,22.03
2018-05-02T10:11:32.075Z,22.35
2018-05-02T10:12:32.058Z,22.97
2018-05-02T10:13:31.950Z,23.31
2018-05-02T10:14:31.893Z,23.27
2018-05-02T10:15:31.832Z,22.45
2018-05-02T10:16:31.775Z,20.95
2018-05-02T10:17:31.719Z,20.13
2018-05-02T10:18:31.696Z,20.06
2018-05-02T10:19:31.592Z,19.80
2018-05-02T10:20:31.535Z,19.88
2018-05-02T10:21:31.470Z,20.24
2018-05-02T10:22:31.407Z,21.16
2018-05-02T10:23:31.353Z,21.67
2018-05-02T10:24:31.288Z,22.03
2018-05-02T10:25:31.226Z,22.02
2018-05-02T10:26:31.174Z,21.59
2018-05-02T10:27:31.105Z,21.04
2018-05-02T10:28:31.044Z,21.09
2018-05-02T10:29:30.984Z,20.58
2018-05-02T10:30:30.921Z,20.50
2018-05-02T10:31:30.858Z,20.11
2018-05-02T10:32:30.800Z,20.01
2018-05-02T10:33:30.734Z,19.74
2018-05-02T10:34:30.672Z,19.39
2018-05-02T10:35:30.608Z,19.29
2018-05-02T10:36:30.547Z,19.14
2018-05-02T10:37:30.482Z,19.46
2018-05-02T10:38:30.420Z,19.51
2018-05-02T10:39:30.356Z,19.08
2018-05-02T10:40:30.291Z,18.63
2018-05-02T10:41:30.231Z,18.58
2018-05-02T10:42:30.164Z,18.63
2018-05-02T10:43:30.100Z,18.12
2018-05-02T10:44:30.034Z,18.32
2018-05-02T10:45:29.968Z,18.12
2018-05-02T10:46:29.903Z,18.37
2018-05-02T10:47:29.841Z,18.58
2018-05-02T10:48:29.768Z,18.58
2018-05-02T10:49:29.703Z,18.39
2018-05-02T10:50:29.717Z,18.67
2018-05-02T10:51:29.571Z,18.78
2018-05-02T10:52:29.506Z,18.94
2018-05-02T10:53:29.437Z,19.07
2018-05-02T10:54:29.367Z,19.16
2018-05-02T10:55:29.306Z,18.81
2018-05-02T10:56:29.243Z,18.08
2018-05-02T10:57:29.168Z,18.20
2018-05-02T10:58:29.103Z,18.51
2018-05-02T10:59:29.036Z,18.00
2018-05-02T11:00:28.969Z,18.12
2018-05-02T11:01:28.901Z,18.29
2018-05-02T11:02:28.832Z,18.25
2018-05-02T11:03:28.766Z,18.26
2018-05-02T11:04:28.693Z,18.44
2018-05-02T11:05:28.629Z,18.33
2018-05-02T11:06:28.565Z,18.57
2018-05-02T11:07:28.496Z,18.65
2018-05-02T11:08:28.456Z,18.85
2018-05-02T11:09:28.358Z,18.69
2018-05-02T11:10:28.293Z,18.60
2018-05-02T11:11:28.222Z,18.50
2018-05-02T11:12:28.158Z,18.51
2018-05-02T11:13:28.086Z,18.80
2018-05-02T11:14:28.020Z,18.95
2018-05-02T11:15:27.954Z,18.91
2018-05-02T11:16:27.887Z,18.90
2018-05-02T11:17:27.816Z,18.82
2018-05-02T11:18:27.744Z,18.85
2018-05-02T11:19:27.685Z,18.81
2018-05-02T11:20:27.616Z,18.87
2018-05-02T11:21:27.541Z,18.87
2018-05-02T11:22:27.474Z,18.39
2018-05-02T11:23:27.407Z,18.12
2018-05-02T11:24:27.339Z,18.23
2018-05-02T11:25:27.271Z,18.36
2018-05-02T11:26:27.214Z,18.66
2018-05-02T11:27:27.134Z,18.94
2018-05-02T11:28:27.151Z,18.70
2018-05-02T11:29:26.997Z,18.94
2018-05-02T11:30:26.933Z,18.90
2018-05-02T11:31:26.863Z,18.57
2018-05-02T11:32:26.794Z,18.35
2018-05-02T11:33:26.725Z,18.52
2018-05-02T11:34:26.660Z,18.78
2018-05-02T11:35:26.591Z,18.94
2018-05-02T11:36:26.522Z,18.98
2018-05-02T11:37:26.454Z,19.21
2018-05-02T11:38:26.388Z,19.47
2018-05-02T11:39:26.321Z,19.40
2018-05-02T11:40:26.249Z,19.44
2018-05-02T11:41:26.187Z,19.56
2018-05-02T11:42:26.115Z,19.22
2018-05-02T11:43:26.052Z,19.25
2018-05-02T11:44:25.980Z,19.25
2018-05-02T11:45:25.914Z,19.31
2018-05-02T11:46:25.846Z,19.44
2018-05-02T11:47:25.781Z,19.41
2018-05-02T11:48:25.712Z,19.51
2018-05-02T11:49:25.644Z,19.56
2018-05-02T11:50:25.577Z,19.74
2018-05-02T11:51:25.510Z,19.74
2018-05-02T11:52:25.442Z,19.80
2018-05-02T11:53:25.394Z,19.78
2018-05-02T11:54:25.314Z,19.76
2018-05-02T11:55:25.242Z,19.65
2018-05-02T11:56:25.175Z,19.61
2018-05-02T11:57:25.107Z,19.58
2018-05-02T11:58:25.039Z,19.08
2018-05-02T11:59:24.996Z,18.82
2018-05-02T12:00:24.907Z,18.58
2018-05-02T12:01:24.838Z,18.57
2018-05-02T12:02:24.770Z,18.63
2018-05-02T12:03:24.723Z,18.75
2018-05-02T12:04:24.639Z,18.82
2018-05-02T12:05:24.568Z,18.55
2018-05-02T12:06:24.500Z,18.72
2018-05-02T12:07:24.435Z,18.66
2018-05-02T12:08:24.368Z,18.82
2018-05-02T12:09:24.298Z,18.99
2018-05-02T12:10:24.291Z,19.00
2018-05-02T12:11:24.166Z,18.94
2018-05-02T12:12:24.095Z,18.65
2018-05-02T12:13:24.027Z,18.70
2018-05-02T12:14:23.959Z,18.84
2018-05-02T12:15:23.905Z,18.88
2018-05-02T12:16:23.824Z,18.95
2018-05-02T12:17:23.753Z,19.00
2018-05-02T12:18:23.695Z,18.99
2018-05-02T12:19:23.624Z,18.99
2018-05-02T12:20:23.552Z,18.81
2018-05-02T12:21:23.515Z,18.81
2018-05-02T12:22:23.420Z,18.80
2018-05-02T12:23:23.346Z,18.78
2018-05-02T12:24:23.279Z,18.67
2018-05-02T12:25:23.213Z,18.63
2018-05-02T12:26:23.148Z,18.55
2018-05-02T12:27:23.076Z,18.23
2018-05-02T12:28:23.006Z,18.21
2018-05-02T12:29:22.938Z,18.30
2018-05-02T12:30:22.872Z,18.54
2018-05-02T12:31:22.803Z,18.55
2018-05-02T12:32:22.735Z,18.51
2018-05-02T12:33:22.672Z,18.32
2018-05-02T12:34:22.598Z,18.32
2018-05-02T12:35:22.551Z,18.08
2018-05-02T12:36:22.461Z,18.25
2018-05-02T12:37:22.392Z,18.47
2018-05-02T12:38:22.324Z,18.63
2018-05-02T12:39:22.258Z,18.85
2018-05-02T12:40:22.190Z,19.04
2018-05-02T12:41:22.121Z,19.16
2018-05-02T12:42:22.051Z,19.00
2018-05-02T12:43:21.984Z,18.91
2018-05-02T12:44:21.915Z,18.50
2018-05-02T12:45:21.845Z,18.73
2018-05-02T12:46:21.782Z,18.60
2018-05-02T12:47:21.712Z,18.36
2018-05-02T12:48:21.645Z,18.52
2018-05-02T12:49:21.573Z,18.39
2018-05-02T12:50:21.504Z,18.36
2018-05-02T12:51:21.441Z,18.55
2018-05-02T12:52:21.373Z,18.35
2018-05-02T12:53:21.300Z,18.32
2018-05-02T12:54:21.231Z,18.36
2018-05-02T12:55:21.164Z,18.39
2018-05-02T12:56:21.112Z,18.50
2018-05-02T12:57:21.025Z,18.36
2018-05-02T12:58:20.958Z,18.65
2018-05-02T12:59:20.888Z,18.30
2018-05-02T13:00:20.821Z,18.39
2018-05-02T13:01:20.752Z,18.67
2018-05-02T13:02:20.681Z,18.90
2018-05-02T13:03:20.615Z,19.10
2018-05-02T13:04:20.614Z,19.11
2018-05-02T13:05:20.483Z,19.06